createdAt,value
2023-03-06T00:00:35.578Z,4.03
2023-03-06T00:03:02.474Z,4.04
2023-03-06T00:05:29.355Z,4.01
2023-03-06T00:07:56.209Z,4.05
2023-03-06T00:10:25.576Z,4.02
2023-03-06T00:12:53.246Z,4.04
2023-03-06T00:15:20.545Z,4.03
2023-03-06T00:17:47.489Z,4.03
2023-03-06T00:20:15.069Z,4.04
2023-03-06T00:22:41.900Z,4.06
2023-03-06T00:25:12.656Z,4.03
2023-03-06T00:27:39.525Z,4.09
2023-03-06T00:30:07.043Z,4.08
2023-03-06T00:32:34.280Z,4.08
2023-03-06T00:35:02.072Z,4.12
2023-03-06T00:37:28.787Z,4.16
2023-03-06T00:39:55.828Z,4.14
2023-03-06T00:42:22.669Z,4.09
2023-03-06T00:44:51.162Z,4.07
2023-03-06T00:47:17.971Z,4.03
2023-03-06T00:49:44.992Z,4.01
2023-03-06T00:52:12.908Z,4.00
2023-03-06T00:54:39.961Z,4.05
2023-03-06T00:57:06.788Z,4.05
2023-03-06T00:59:33.467Z,4.02
2023-03-06T01:02:00.312Z,4.00
2023-03-06T01:04:27.473Z,3.99
2023-03-06T01:06:54.090Z,4.03
2023-03-06T01:09:20.968Z,4.03
2023-03-06T01:11:47.680Z,4.00
2023-03-06T01:14:14.418Z,4.04
2023-03-06T01:16:42.020Z,4.05
2023-03-06T01:19:09.669Z,4.00
2023-03-06T01:21:36.540Z,3.89
2023-03-06T01:24:03.336Z,3.95
2023-03-06T01:26:30.101Z,3.94
2023-03-06T01:28:57.512Z,3.92
2023-03-06T01:31:25.334Z,3.86
2023-03-06T01:33:52.573Z,3.90
2023-03-06T01:36:19.370Z,3.89
2023-03-06T01:38:46.053Z,3.86
2023-03-06T01:41:15.851Z,3.88
2023-03-06T01:43:46.394Z,3.84
2023-03-06T01:46:33.805Z,3.78
2023-03-06T01:49:08.260Z,3.88
2023-03-06T01:51:48.649Z,3.84
2023-03-06T01:54:19.553Z,3.87
2023-03-06T01:56:47.174Z,3.89
2023-03-06T01:59:14.622Z,3.88
2023-03-06T02:01:41.684Z,3.87
2023-03-06T02:04:08.914Z,3.85
2023-03-06T02:06:38.484Z,3.83
2023-03-06T02:09:06.402Z,3.86
2023-03-06T02:11:33.406Z,3.82
2023-03-06T02:14:00.408Z,3.84
2023-03-06T02:16:29.774Z,3.77
2023-03-06T02:18:58.812Z,3.74
2023-03-06T02:21:35.823Z,3.72
2023-03-06T02:24:13.609Z,3.70
2023-03-06T02:26:42.267Z,3.76
2023-03-06T02:29:09.719Z,3.79
2023-03-06T02:31:36.463Z,3.68
2023-03-06T02:34:23.479Z,3.63
2023-03-06T02:36:54.070Z,3.69
2023-03-06T02:39:23.094Z,3.69
2023-03-06T02:41:49.821Z,3.72
2023-03-06T02:44:17.893Z,3.69
2023-03-06T02:46:44.706Z,3.66
2023-03-06T02:49:11.542Z,3.68
2023-03-06T02:51:38.189Z,3.66
2023-03-06T02:54:05.938Z,3.67
2023-03-06T02:56:32.684Z,3.67
2023-03-06T02:58:59.420Z,3.67
2023-03-06T03:01:26.238Z,3.68
2023-03-06T03:03:53.110Z,3.66
2023-03-06T03:06:21.100Z,3.66
2023-03-06T03:08:48.937Z,3.68
2023-03-06T03:11:16.113Z,3.67
2023-03-06T03:13:44.399Z,3.67
2023-03-06T03:16:17.908Z,3.65
2023-03-06T03:18:44.957Z,3.66
2023-03-06T03:21:13.520Z,3.68
2023-03-06T03:23:40.809Z,3.58
2023-03-06T03:26:09.034Z,3.59
2023-03-06T03:28:37.842Z,3.63
2023-03-06T03:31:07.278Z,3.65
2023-03-06T03:33:34.705Z,3.62
2023-03-06T03:36:03.076Z,3.66
2023-03-06T03:38:30.355Z,3.55
2023-03-06T03:40:57.301Z,3.57
2023-03-06T03:43:24.320Z,3.62
2023-03-06T03:45:57.422Z,3.60
2023-03-06T03:48:24.494Z,3.60
2023-03-06T03:50:51.703Z,3.59
2023-03-06T03:53:20.165Z,3.60
2023-03-06T03:55:48.718Z,3.59
2023-03-06T03:58:17.774Z,3.56
2023-03-06T04:00:44.902Z,3.57
2023-03-06T04:03:14.328Z,3.53
2023-03-06T04:05:44.090Z,3.48
2023-03-06T04:08:13.590Z,3.54
2023-03-06T04:10:43.498Z,3.53
2023-03-06T04:13:11.884Z,3.47
2023-03-06T04:15:42.467Z,3.51
2023-03-06T04:18:10.183Z,3.51
2023-03-06T04:20:36.955Z,3.54
2023-03-06T04:23:05.439Z,3.55
2023-03-06T04:25:32.314Z,3.52
2023-03-06T04:28:01.958Z,3.53
2023-03-06T04:30:30.223Z,3.58
2023-03-06T04:32:57.447Z,3.56
2023-03-06T04:35:24.892Z,3.52
2023-03-06T04:37:58.010Z,3.51
2023-03-06T04:40:28.866Z,3.51
2023-03-06T04:42:59.605Z,3.44
2023-03-06T04:45:28.866Z,3.47
2023-03-06T04:47:56.206Z,3.48
2023-03-06T04:50:23.977Z,3.44
2023-03-06T04:52:51.538Z,3.40
2023-03-06T04:55:19.127Z,3.43
2023-03-06T04:57:47.153Z,3.47
2023-03-06T05:00:17.041Z,3.44
2023-03-06T05:02:44.478Z,3.43
2023-03-06T05:05:12.370Z,3.38
2023-03-06T05:07:39.758Z,3.41
2023-03-06T05:10:07.665Z,3.40
2023-03-06T05:12:37.816Z,3.36
2023-03-06T05:15:05.933Z,3.43
2023-03-06T05:17:32.674Z,3.37
2023-03-06T05:19:59.328Z,3.40
2023-03-06T05:22:26.046Z,3.42
2023-03-06T05:24:52.790Z,3.44
2023-03-06T05:27:19.462Z,3.40
2023-03-06T05:29:46.189Z,3.39
2023-03-06T05:32:12.976Z,3.38
2023-03-06T05:34:39.908Z,3.41
2023-03-06T05:37:06.603Z,3.39
2023-03-06T05:39:33.287Z,3.36
2023-03-06T05:41:59.966Z,3.37
2023-03-06T05:44:34.370Z,3.36
2023-03-06T05:47:01.554Z,3.35
2023-03-06T05:49:31.994Z,3.37
2023-03-06T05:51:58.668Z,3.38
2023-03-06T05:54:26.228Z,3.37
2023-03-06T05:56:53.047Z,3.34
2023-03-06T05:59:19.793Z,3.37
2023-03-06T06:01:46.483Z,3.44
2023-03-06T06:04:13.180Z,3.42
2023-03-06T06:06:39.873Z,3.44
2023-03-06T06:09:06.692Z,3.42
2023-03-06T06:11:33.364Z,3.42
2023-03-06T06:14:00.062Z,3.43
2023-03-06T06:16:26.776Z,3.40
2023-03-06T06:18:53.414Z,3.42
2023-03-06T06:21:20.700Z,3.42
2023-03-06T06:23:47.504Z,3.43
2023-03-06T06:26:14.321Z,3.40
2023-03-06T06:28:41.013Z,3.40
2023-03-06T06:31:10.401Z,3.42
2023-03-06T06:33:37.122Z,3.41
2023-03-06T06:36:04.057Z,3.42
2023-03-06T06:38:30.841Z,3.39
2023-03-06T06:41:27.145Z,3.42
2023-03-06T06:43:44.266Z,3.42
2023-03-06T06:46:47.184Z,3.40
2023-03-06T06:48:58.522Z,3.40
2023-03-06T06:51:25.216Z,3.39
2023-03-06T06:53:52.120Z,3.43
2023-03-06T06:56:18.818Z,3.42
2023-03-06T06:58:45.520Z,3.40
2023-03-06T07:01:13.136Z,3.46
2023-03-06T07:03:40.759Z,3.51
2023-03-06T07:06:07.426Z,3.52
2023-03-06T07:08:34.183Z,3.52
2023-03-06T07:11:06.108Z,3.50
2023-03-06T07:13:32.752Z,3.47
2023-03-06T07:15:59.481Z,3.42
2023-03-06T07:18:26.200Z,3.43
2023-03-06T07:20:56.719Z,3.46
2023-03-06T07:23:24.816Z,3.42
2023-03-06T07:25:51.511Z,3.43
2023-03-06T07:28:19.555Z,3.47
2023-03-06T07:30:46.356Z,3.43
2023-03-06T07:33:13.476Z,3.44
2023-03-06T07:35:41.495Z,3.48
2023-03-06T07:38:09.070Z,3.51
2023-03-06T07:40:35.865Z,3.53
2023-03-06T07:43:18.416Z,3.56
2023-03-06T07:45:59.973Z,3.55
2023-03-06T07:48:27.487Z,3.59
2023-03-06T07:51:00.253Z,3.58
2023-03-06T07:53:27.187Z,3.62
2023-03-06T07:55:53.879Z,3.66
2023-03-06T07:58:20.870Z,3.61
2023-03-06T08:00:47.960Z,3.62
2023-03-06T08:03:14.980Z,3.67
2023-03-06T08:05:41.953Z,3.66
2023-03-06T08:08:08.787Z,3.72
2023-03-06T08:10:35.544Z,3.76
2023-03-06T08:13:02.249Z,3.79
2023-03-06T08:15:28.934Z,3.85
2023-03-06T08:17:55.747Z,3.95
2023-03-06T08:20:22.497Z,4.03
2023-03-06T08:22:49.170Z,4.08
2023-03-06T08:25:16.033Z,4.15
2023-03-06T08:27:43.258Z,4.19
2023-03-06T08:30:10.520Z,4.21
2023-03-06T08:32:37.482Z,4.23
2023-03-06T08:35:05.141Z,4.26
2023-03-06T08:37:31.959Z,4.25
2023-03-06T08:39:58.841Z,4.27
2023-03-06T08:42:25.546Z,4.30
2023-03-06T08:44:52.270Z,4.31
2023-03-06T08:47:19.062Z,4.32
2023-03-06T08:49:45.868Z,4.35
2023-03-06T08:52:12.702Z,4.37
2023-03-06T08:54:39.670Z,4.40
2023-03-06T08:57:06.837Z,4.43
2023-03-06T08:59:33.666Z,4.46
2023-03-06T09:02:00.488Z,4.48
2023-03-06T09:04:29.948Z,4.52
2023-03-06T09:06:56.708Z,4.56
2023-03-06T09:09:23.406Z,4.61
2023-03-06T09:11:51.216Z,4.64
2023-03-06T09:14:17.932Z,4.67
2023-03-06T09:16:44.643Z,4.71
2023-03-06T09:19:11.402Z,4.74
2023-03-06T09:21:38.094Z,4.77
2023-03-06T09:24:04.896Z,4.80
2023-03-06T09:26:45.074Z,4.85
2023-03-06T09:29:13.101Z,4.90
2023-03-06T09:31:39.871Z,4.92
2023-03-06T09:34:06.576Z,4.95
2023-03-06T09:36:42.735Z,4.97
2023-03-06T09:39:16.136Z,4.99
2023-03-06T09:41:43.085Z,5.01
2023-03-06T09:44:26.130Z,5.00
2023-03-06T09:47:15.342Z,4.95
2023-03-06T09:50:05.557Z,4.98
2023-03-06T09:53:02.747Z,4.98
2023-03-06T09:55:32.804Z,4.96
2023-03-06T09:58:21.420Z,4.93
2023-03-06T10:01:02.804Z,4.91
2023-03-06T10:03:51.080Z,4.95
2023-03-06T10:06:31.366Z,4.92
2023-03-06T10:08:59.035Z,4.96
2023-03-06T10:11:34.756Z,4.96
2023-03-06T10:14:16.397Z,4.96
2023-03-06T10:16:43.109Z,5.00
2023-03-06T10:19:15.903Z,4.98
2023-03-06T10:21:53.447Z,4.97
2023-03-06T10:24:47.325Z,4.97
2023-03-06T10:27:46.709Z,4.95
2023-03-06T10:30:51.032Z,4.95
2023-03-06T10:33:46.668Z,4.93
2023-03-06T10:36:18.304Z,4.99
2023-03-06T10:38:45.850Z,5.01
2023-03-06T10:41:12.535Z,5.02
2023-03-06T10:43:43.249Z,5.02
2023-03-06T10:46:12.995Z,5.03
2023-03-06T10:48:42.318Z,5.03
2023-03-06T10:51:18.591Z,5.02
2023-03-06T10:54:14.130Z,4.99
2023-03-06T10:56:45.457Z,5.03
2023-03-06T10:59:13.021Z,5.05
2023-03-06T11:01:42.290Z,5.08
2023-03-06T11:04:21.951Z,5.07
2023-03-06T11:06:49.328Z,5.10
2023-03-06T11:09:18.630Z,5.09
2023-03-06T11:11:45.259Z,5.10
2023-03-06T11:14:17.897Z,5.09
2023-03-06T11:16:53.077Z,5.08
2023-03-06T11:19:23.977Z,5.11
2023-03-06T11:22:30.589Z,5.08
2023-03-06T11:24:58.378Z,5.12
2023-03-06T11:27:34.528Z,5.10
2023-03-06T11:30:11.106Z,5.17
2023-03-06T11:32:52.392Z,5.15
2023-03-06T11:35:29.061Z,5.21
2023-03-06T11:38:00.765Z,5.23
2023-03-06T11:40:59.257Z,5.24
2023-03-06T11:43:55.914Z,5.24
2023-03-06T11:46:22.930Z,5.28
2023-03-06T11:48:53.595Z,5.27
2023-03-06T11:51:40.378Z,5.27
2023-03-06T11:54:09.610Z,5.25
2023-03-06T11:56:53.843Z,5.20
2023-03-06T11:59:33.551Z,5.16
2023-03-06T12:02:51.737Z,5.12
2023-03-06T12:05:26.443Z,5.13
2023-03-06T12:08:20.095Z,5.13
2023-03-06T12:11:13.470Z,5.11
2023-03-06T12:13:48.111Z,5.14
2023-03-06T12:16:52.623Z,5.00
2023-03-06T12:26:22.265Z,4.98
2023-03-06T12:45:03.962Z,4.93
2023-03-06T12:47:34.298Z,4.98
2023-03-06T12:50:13.620Z,4.95
2023-03-06T12:52:41.410Z,4.95
2023-03-06T12:55:13.247Z,4.95
2023-03-06T12:57:41.690Z,4.92
2023-03-06T13:00:29.991Z,4.88
2023-03-06T13:03:15.166Z,4.75
2023-03-06T13:05:56.696Z,4.70
2023-03-06T13:08:33.860Z,4.68
2023-03-06T13:11:22.039Z,4.65
2023-03-06T13:13:48.910Z,4.67
2023-03-06T13:16:18.329Z,4.66
2023-03-06T13:18:49.120Z,4.64
2023-03-06T13:21:41.828Z,4.61
2023-03-06T13:24:31.721Z,4.62
2023-03-06T13:27:02.863Z,4.67
2023-03-06T13:29:50.654Z,4.66
2023-03-06T13:32:19.398Z,4.72
2023-03-06T13:34:48.552Z,4.76
2023-03-06T13:37:22.961Z,4.82
2023-03-06T13:39:55.666Z,4.88
2023-03-06T13:42:42.082Z,4.93
2023-03-06T13:45:32.451Z,5.00
2023-03-06T13:48:27.229Z,5.08
2023-03-06T13:50:48.155Z,5.10
2023-03-06T13:53:20.821Z,5.14
2023-03-06T13:56:06.362Z,5.14
2023-03-06T13:58:53.043Z,5.16
2023-03-06T14:01:53.860Z,5.18
2023-03-06T14:04:27.165Z,5.23
2023-03-06T14:07:12.566Z,5.16
2023-03-06T14:09:44.585Z,5.22
2023-03-06T14:12:23.606Z,5.23
2023-03-06T14:14:56.767Z,5.25
2023-03-06T14:17:49.228Z,5.24
2023-03-06T14:20:18.713Z,5.23
2023-03-06T14:22:45.439Z,5.24
2023-03-06T14:25:24.164Z,5.23
2023-03-06T14:27:53.558Z,5.24
2023-03-06T14:30:25.230Z,5.23
2023-03-06T14:32:54.157Z,5.21
2023-03-06T14:35:28.179Z,5.18
2023-03-06T14:38:01.548Z,5.18
2023-03-06T14:40:32.079Z,5.09
2023-03-06T14:43:21.992Z,5.11
2023-03-06T14:45:56.146Z,5.16
2023-03-06T14:48:27.107Z,5.19
2023-03-06T14:50:57.705Z,5.18
2023-03-06T14:53:28.414Z,5.19
2023-03-06T14:55:57.977Z,5.18
2023-03-06T14:58:49.736Z,5.12
2023-03-06T15:01:16.859Z,5.15
2023-03-06T15:03:55.295Z,5.14
2023-03-06T15:06:38.886Z,5.15
2023-03-06T15:09:16.845Z,5.14
2023-03-06T15:12:03.059Z,5.07
2023-03-06T15:14:36.320Z,5.04
2023-03-06T15:17:15.211Z,4.89
2023-03-06T15:19:41.902Z,4.98
2023-03-06T15:22:27.236Z,4.93
2023-03-06T15:24:54.453Z,4.93
2023-03-06T15:27:27.404Z,4.88
2023-03-06T15:30:13.112Z,4.84
2023-03-06T15:32:42.501Z,4.85
2023-03-06T15:35:24.521Z,4.82
2023-03-06T15:37:52.295Z,4.83
2023-03-06T15:40:21.925Z,4.80
2023-03-06T15:42:52.119Z,4.77
2023-03-06T15:45:21.726Z,4.78
2023-03-06T15:47:50.325Z,4.73
2023-03-06T15:50:26.297Z,4.71
2023-03-06T15:52:53.464Z,4.72
2023-03-06T15:55:25.529Z,4.76
2023-03-06T15:57:57.498Z,4.79
2023-03-06T16:00:29.847Z,4.81
2023-03-06T16:02:57.989Z,4.82
2023-03-06T16:05:26.292Z,4.85
2023-03-06T16:07:53.120Z,4.84
2023-03-06T16:10:23.720Z,4.85
2023-03-06T16:13:02.285Z,4.81
2023-03-06T16:15:29.553Z,4.81
2023-03-06T16:18:00.111Z,4.81
2023-03-06T16:20:28.139Z,4.79
2023-03-06T16:22:54.957Z,4.77
2023-03-06T16:25:24.080Z,4.73
2023-03-06T16:27:55.448Z,4.74
2023-03-06T16:30:23.169Z,4.74
2023-03-06T16:32:49.842Z,4.73
2023-03-06T16:35:20.132Z,4.73
2023-03-06T16:37:47.296Z,4.75
2023-03-06T16:40:22.162Z,4.73
2023-03-06T16:42:49.965Z,4.74
2023-03-06T16:45:18.240Z,4.74
2023-03-06T16:47:46.241Z,4.73
2023-03-06T16:50:24.415Z,4.70
2023-03-06T16:52:52.401Z,4.70
2023-03-06T16:55:19.416Z,4.69
2023-03-06T16:57:46.554Z,4.67
2023-03-06T17:00:14.062Z,4.65
2023-03-06T17:02:40.746Z,4.63
2023-03-06T17:05:09.276Z,4.65
2023-03-06T17:07:37.470Z,4.61
2023-03-06T17:10:05.449Z,4.62
2023-03-06T17:12:32.158Z,4.60
2023-03-06T17:14:58.878Z,4.59
2023-03-06T17:17:25.600Z,4.59
2023-03-06T17:19:52.740Z,4.57
2023-03-06T17:22:19.987Z,4.60
2023-03-06T17:24:52.088Z,4.58
2023-03-06T17:27:21.166Z,4.56
2023-03-06T17:29:48.353Z,4.55
2023-03-06T17:32:15.203Z,4.56
2023-03-06T17:34:42.122Z,4.57
2023-03-06T17:37:09.242Z,4.53
2023-03-06T17:39:37.625Z,4.54
2023-03-06T17:42:05.462Z,4.56
2023-03-06T17:44:34.574Z,4.56
2023-03-06T17:47:02.009Z,4.53
2023-03-06T17:49:28.888Z,4.50
2023-03-06T17:51:56.924Z,4.51
2023-03-06T17:54:26.150Z,4.50
2023-03-06T17:56:53.688Z,4.47
2023-03-06T17:59:20.423Z,4.48
2023-03-06T18:01:47.311Z,4.48
2023-03-06T18:04:14.098Z,4.47
2023-03-06T18:06:40.801Z,4.48
2023-03-06T18:09:09.966Z,4.47
2023-03-06T18:11:37.419Z,4.48
2023-03-06T18:14:05.532Z,4.52
2023-03-06T18:16:32.511Z,4.49
2023-03-06T18:18:59.358Z,4.54
2023-03-06T18:21:26.309Z,4.55
2023-03-06T18:23:53.276Z,4.55
2023-03-06T18:26:23.164Z,4.54
2023-03-06T18:28:54.366Z,4.51
2023-03-06T18:31:30.471Z,4.57
2023-03-06T18:34:00.121Z,4.57
2023-03-06T18:36:29.376Z,4.55
2023-03-06T18:38:56.541Z,4.53
2023-03-06T18:41:23.465Z,4.54
2023-03-06T18:43:59.127Z,4.47
2023-03-06T18:46:30.009Z,4.49
2023-03-06T18:48:56.763Z,4.48
2023-03-06T18:51:25.619Z,4.48
2023-03-06T18:53:52.314Z,4.42
2023-03-06T18:56:21.647Z,4.38
2023-03-06T18:58:48.911Z,4.36
2023-03-06T19:01:15.724Z,4.39
2023-03-06T19:03:42.912Z,4.39
2023-03-06T19:06:12.184Z,4.37
2023-03-06T19:08:39.838Z,4.38
2023-03-06T19:11:08.900Z,4.37
2023-03-06T19:13:36.008Z,4.35
2023-03-06T19:16:03.199Z,4.40
2023-03-06T19:18:30.316Z,4.35
2023-03-06T19:21:08.412Z,4.26
2023-03-06T19:23:35.154Z,4.30
2023-03-06T19:26:01.944Z,4.29
2023-03-06T19:28:28.785Z,4.29
2023-03-06T19:30:55.872Z,4.31
2023-03-06T19:33:22.744Z,4.29
2023-03-06T19:35:49.599Z,4.29
2023-03-06T19:38:16.473Z,4.27
2023-03-06T19:40:50.112Z,4.18
2023-03-06T19:43:17.037Z,4.23
2023-03-06T19:45:44.579Z,4.25
2023-03-06T19:48:12.564Z,4.25
2023-03-06T19:50:40.250Z,4.23
2023-03-06T19:53:07.843Z,4.20
2023-03-06T19:55:34.818Z,4.21
2023-03-06T19:58:01.502Z,4.20
2023-03-06T20:00:28.439Z,4.19
2023-03-06T20:02:55.713Z,4.21
2023-03-06T20:05:22.520Z,4.19
2023-03-06T20:07:49.963Z,4.18
2023-03-06T20:10:17.132Z,4.19
2023-03-06T20:12:44.030Z,4.16
2023-03-06T20:15:11.011Z,4.13
2023-03-06T20:17:40.524Z,4.17
2023-03-06T20:20:09.623Z,4.13
2023-03-06T20:22:36.410Z,4.15
2023-03-06T20:25:03.772Z,4.12
2023-03-06T20:27:30.469Z,4.16
2023-03-06T20:29:57.312Z,4.14
2023-03-06T20:32:24.059Z,4.15
2023-03-06T20:34:50.904Z,4.17
2023-03-06T20:37:17.611Z,4.18
2023-03-06T20:39:44.709Z,4.14
2023-03-06T20:42:11.506Z,4.17
2023-03-06T20:44:38.302Z,4.21
2023-03-06T20:47:05.636Z,4.24
2023-03-06T20:49:32.463Z,4.20
2023-03-06T20:51:59.176Z,4.25
2023-03-06T20:54:25.939Z,4.26
2023-03-06T20:56:52.626Z,4.22
2023-03-06T20:59:19.440Z,4.24
2023-03-06T21:01:47.908Z,4.24
2023-03-06T21:04:15.214Z,4.22
2023-03-06T21:06:46.145Z,4.20
2023-03-06T21:09:14.817Z,4.20
2023-03-06T21:11:41.591Z,4.20
2023-03-06T21:14:08.361Z,4.22
2023-03-06T21:16:35.924Z,4.19
2023-03-06T21:19:02.745Z,4.21
2023-03-06T21:21:31.855Z,4.19
2023-03-06T21:24:01.038Z,4.19
2023-03-06T21:26:30.126Z,4.20
2023-03-06T21:28:58.774Z,4.20
2023-03-06T21:31:26.229Z,4.20
2023-03-06T21:33:53.002Z,4.21
2023-03-06T21:36:21.670Z,4.21
2023-03-06T21:38:49.948Z,4.19
2023-03-06T21:41:24.123Z,4.18
2023-03-06T21:44:02.134Z,4.17
2023-03-06T21:46:29.070Z,4.18
2023-03-06T21:48:56.215Z,4.17
2023-03-06T21:51:23.681Z,4.17
2023-03-06T21:53:51.265Z,4.21
2023-03-06T21:56:19.954Z,4.27
2023-03-06T21:58:47.127Z,4.24
2023-03-06T22:01:17.234Z,4.23
2023-03-06T22:03:44.133Z,4.27
2023-03-06T22:06:12.949Z,4.29
2023-03-06T22:08:40.395Z,4.30
2023-03-06T22:11:12.956Z,4.34
2023-03-06T22:13:39.910Z,4.35
2023-03-06T22:16:06.913Z,4.38
2023-03-06T22:18:33.912Z,4.39
2023-03-06T22:21:00.672Z,4.39
2023-03-06T22:23:27.461Z,4.38
2023-03-06T22:25:54.377Z,4.43
2023-03-06T22:28:21.128Z,4.43
2023-03-06T22:30:48.162Z,4.48
2023-03-06T22:33:14.850Z,4.49
2023-03-06T22:35:41.604Z,4.45
2023-03-06T22:38:08.497Z,4.46
2023-03-06T22:40:35.343Z,4.46
2023-03-06T22:43:02.406Z,4.46
2023-03-06T22:45:29.406Z,4.44
2023-03-06T22:48:05.581Z,4.48
2023-03-06T22:50:37.201Z,4.43
2023-03-06T22:53:03.858Z,4.44
2023-03-06T22:55:30.660Z,4.43
2023-03-06T22:57:57.518Z,4.43
2023-03-06T23:00:25.601Z,4.40
2023-03-06T23:02:52.682Z,4.40
2023-03-06T23:05:19.391Z,4.37
2023-03-06T23:07:46.107Z,4.39
2023-03-06T23:10:12.946Z,4.38
2023-03-06T23:12:58.295Z,4.33
2023-03-06T23:15:44.008Z,4.33
2023-03-06T23:18:30.191Z,4.38
2023-03-06T23:21:17.386Z,4.41
2023-03-06T23:24:02.987Z,4.45
2023-03-06T23:26:30.801Z,4.47
2023-03-06T23:28:58.002Z,4.49
2023-03-06T23:31:28.779Z,4.51
2023-03-06T23:34:00.558Z,4.51
2023-03-06T23:36:27.859Z,4.52
2023-03-06T23:38:54.907Z,4.56
2023-03-06T23:41:22.985Z,4.57
2023-03-06T23:43:50.002Z,4.57
2023-03-06T23:46:17.148Z,4.57
2023-03-06T23:48:44.605Z,4.55
2023-03-06T23:51:17.776Z,4.50
2023-03-06T23:53:45.440Z,4.49
2023-03-06T23:56:12.138Z,4.50
2023-03-06T23:58:39.156Z,4.50
